createdAt,value
2018-06-03T00:01:18.921Z,100625.25
2018-06-03T00:03:46.590Z,100626.34
2018-06-03T00:06:14.199Z,100622.80
2018-06-03T00:08:41.846Z,100624.53
2018-06-03T00:11:09.450Z,100616.30
2018-06-03T00:13:37.206Z,100614.69
2018-06-03T00:16:04.958Z,100613.52
2018-06-03T00:18:32.632Z,100610.76
2018-06-03T00:21:11.928Z,100611.13
2018-06-03T00:23:39.579Z,100611.59
2018-06-03T00:26:07.234Z,100617.57
2018-06-03T00:28:34.878Z,100622.69
2018-06-03T00:31:02.500Z,100617.33
2018-06-03T00:33:30.147Z,100617.94
2018-06-03T00:36:09.714Z,100616.90
2018-06-03T00:38:37.373Z,100615.32
2018-06-03T00:41:04.986Z,100618.88
2018-06-03T00:43:32.650Z,100617.20
2018-06-03T00:46:00.271Z,100614.84
2018-06-03T00:48:27.921Z,100618.17
2018-06-03T00:50:55.532Z,100617.67
2018-06-03T00:53:23.186Z,100614.07
2018-06-03T00:55:50.848Z,100614.67
2018-06-03T00:58:50.890Z,100620.81
2018-06-03T01:01:19.819Z,100616.08
2018-06-03T01:03:48.763Z,100610.94
2018-06-03T01:06:17.768Z,100611.17
2018-06-03T01:08:46.743Z,100603.86
2018-06-03T01:11:15.740Z,100611.45
2018-06-03T01:13:44.695Z,100604.27
2018-06-03T01:16:13.671Z,100603.21
2018-06-03T01:18:42.607Z,100595.94
2018-06-03T01:21:11.599Z,100600.13
2018-06-03T01:23:40.561Z,100600.45
2018-06-03T01:26:09.558Z,100599.19
2018-06-03T01:28:38.563Z,100590.04
2018-06-03T01:31:07.681Z,100596.80
2018-06-03T01:33:36.618Z,100595.30
2018-06-03T01:36:05.610Z,100586.75
2018-06-03T01:38:34.590Z,100597.52
2018-06-03T01:41:03.610Z,100587.33
2018-06-03T01:43:32.667Z,100580.38
2018-06-03T01:46:01.662Z,100579.34
2018-06-03T01:48:30.626Z,100582.56
2018-06-03T01:50:59.632Z,100576.46
2018-06-03T01:53:28.594Z,100576.73
2018-06-03T01:55:57.622Z,100584.01
2018-06-03T01:58:26.591Z,100581.68
2018-06-03T02:00:55.593Z,100578.27
2018-06-03T02:03:24.550Z,100576.20
2018-06-03T02:05:53.571Z,100579.37
2018-06-03T02:08:22.570Z,100580.20
2018-06-03T02:10:51.572Z,100582.34
2018-06-03T02:13:20.531Z,100581.88
2018-06-03T02:15:49.479Z,100576.18
2018-06-03T02:18:18.371Z,100570.57
2018-06-03T02:20:47.321Z,100569.48
2018-06-03T02:23:16.303Z,100562.40
2018-06-03T02:25:45.283Z,100558.25
2018-06-03T02:28:14.223Z,100559.95
2018-06-03T02:30:43.217Z,100562.00
2018-06-03T02:33:12.157Z,100563.17
2018-06-03T02:35:41.130Z,100562.69
2018-06-03T02:38:10.113Z,100564.03
2018-06-03T02:40:39.101Z,100557.94
2018-06-03T02:43:08.135Z,100561.81
2018-06-03T02:45:37.149Z,100562.00
2018-06-03T02:48:06.159Z,100565.59
2018-06-03T02:50:35.182Z,100565.59
2018-06-03T02:53:04.148Z,100560.81
2018-06-03T02:55:33.140Z,100564.77
2018-06-03T02:58:02.150Z,100565.86
2018-06-03T03:00:31.129Z,100568.28
2018-06-03T03:03:00.124Z,100565.95
2018-06-03T03:05:29.055Z,100571.55
2018-06-03T03:07:58.052Z,100568.69
2018-06-03T03:10:26.996Z,100566.78
2018-06-03T03:12:56.006Z,100563.99
2018-06-03T03:15:24.992Z,100559.37
2018-06-03T03:17:53.982Z,100558.59
2018-06-03T03:20:22.933Z,100559.71
2018-06-03T03:22:51.911Z,100560.59
2018-06-03T03:25:20.855Z,100563.53
2018-06-03T03:27:49.862Z,100563.77
2018-06-03T03:30:18.775Z,100563.19
2018-06-03T03:32:47.722Z,100561.00
2018-06-03T03:35:16.622Z,100564.12
2018-06-03T03:37:45.567Z,100558.78
2018-06-03T03:40:14.470Z,100554.50
2018-06-03T03:42:43.431Z,100547.94
2018-06-03T03:45:12.359Z,100547.70
2018-06-03T03:47:41.315Z,100553.47
2018-06-03T03:50:10.231Z,100556.59
2018-06-03T03:52:39.231Z,100557.57
2018-06-03T03:55:08.146Z,100566.69
2018-06-03T03:57:37.100Z,100565.34
2018-06-03T04:00:06.046Z,100562.46
2018-06-03T04:02:35.019Z,100565.44
2018-06-03T04:05:03.931Z,100566.89
2018-06-03T04:07:32.883Z,100558.52
2018-06-03T04:10:01.791Z,100572.17
2018-06-03T04:12:30.759Z,100568.08
2018-06-03T04:14:59.704Z,100568.55
2018-06-03T04:17:28.669Z,100570.81
2018-06-03T04:19:57.598Z,100575.84
2018-06-03T04:22:26.550Z,100576.34
2018-06-03T04:24:55.503Z,100577.33
2018-06-03T04:27:24.473Z,100579.75
2018-06-03T04:29:53.442Z,100577.82
2018-06-03T04:32:22.385Z,100584.52
2018-06-03T04:34:51.275Z,100584.60
2018-06-03T04:37:20.262Z,100584.05
2018-06-03T04:39:49.163Z,100579.23
2018-06-03T04:42:18.115Z,100585.31
2018-06-03T04:44:47.014Z,100579.36
2018-06-03T04:47:15.980Z,100586.05
2018-06-03T04:49:44.907Z,100588.50
2018-06-03T04:52:13.855Z,100596.84
2018-06-03T04:54:42.756Z,100602.65
2018-06-03T04:57:11.722Z,100594.17
2018-06-03T04:59:40.870Z,100604.83
2018-06-03T05:02:09.966Z,100600.88
2018-06-03T05:04:38.897Z,100599.52
2018-06-03T05:07:07.838Z,100603.92
2018-06-03T05:09:36.766Z,100603.80
2018-06-03T05:12:05.760Z,100602.77
2018-06-03T05:14:34.674Z,100596.27
2018-06-03T05:17:03.619Z,100604.62
2018-06-03T05:19:32.550Z,100606.56
2018-06-03T05:22:01.512Z,100600.89
2018-06-03T05:24:30.414Z,100608.55
2018-06-03T05:26:59.393Z,100597.34
2018-06-03T05:29:28.335Z,100606.61
2018-06-03T05:31:57.299Z,100611.81
2018-06-03T05:34:26.238Z,100610.40
2018-06-03T05:36:55.234Z,100614.14
2018-06-03T05:39:24.229Z,100616.34
2018-06-03T05:41:53.154Z,100607.52
2018-06-03T05:44:22.142Z,100616.63
2018-06-03T05:46:51.090Z,100605.09
2018-06-03T05:49:20.090Z,100611.05
2018-06-03T05:51:49.036Z,100616.45
2018-06-03T05:54:18.006Z,100611.98
2018-06-03T05:56:46.941Z,100606.08
2018-06-03T05:59:15.934Z,100616.80
2018-06-03T06:01:44.882Z,100615.46
2018-06-03T06:04:13.846Z,100617.73
2018-06-03T06:06:42.774Z,100619.27
2018-06-03T06:09:11.747Z,100618.22
2018-06-03T06:11:40.700Z,100621.94
2018-06-03T06:14:09.701Z,100618.30
2018-06-03T06:16:38.639Z,100616.64
2018-06-03T06:19:07.629Z,100617.38
2018-06-03T06:21:36.577Z,100613.71
2018-06-03T06:24:05.568Z,100613.42
2018-06-03T06:26:34.502Z,100614.33
2018-06-03T06:29:03.494Z,100616.59
2018-06-03T06:31:32.413Z,100626.82
2018-06-03T06:34:01.359Z,100627.67
2018-06-03T06:36:30.368Z,100630.84
2018-06-03T06:38:59.374Z,100628.81
2018-06-03T06:41:28.344Z,100632.31
2018-06-03T06:43:57.344Z,100626.03
2018-06-03T06:46:26.320Z,100629.38
2018-06-03T06:48:55.340Z,100634.33
2018-06-03T06:51:24.330Z,100631.31
2018-06-03T06:53:53.329Z,100628.26
2018-06-03T06:56:22.350Z,100630.97
2018-06-03T06:58:51.364Z,100635.30
2018-06-03T07:01:20.351Z,100639.12
2018-06-03T07:03:49.353Z,100640.68
2018-06-03T07:06:18.337Z,100640.23
2018-06-03T07:08:47.320Z,100644.48
2018-06-03T07:11:16.246Z,100642.33
2018-06-03T07:13:45.241Z,100641.73
2018-06-03T07:16:14.183Z,100641.42
2018-06-03T07:18:43.155Z,100647.80
2018-06-03T07:21:12.126Z,100644.84
2018-06-03T07:23:41.140Z,100647.81
2018-06-03T07:26:10.098Z,100639.66
2018-06-03T07:28:39.131Z,100640.59
2018-06-03T07:31:08.046Z,100641.80
2018-06-03T07:33:36.997Z,100632.67
2018-06-03T07:36:05.923Z,100638.20
2018-06-03T07:38:34.908Z,100638.69
2018-06-03T07:41:03.826Z,100638.55
2018-06-03T07:43:32.818Z,100636.13
2018-06-03T07:46:01.886Z,100634.89
2018-06-03T07:48:31.059Z,100632.53
2018-06-03T07:50:59.951Z,100627.88
2018-06-03T07:53:28.910Z,100628.66
2018-06-03T07:55:57.831Z,100621.84
2018-06-03T07:58:26.798Z,100619.53
2018-06-03T08:00:55.734Z,100623.34
2018-06-03T08:03:24.683Z,100629.23
2018-06-03T08:05:53.594Z,100625.74
2018-06-03T08:08:22.544Z,100623.98
2018-06-03T08:10:51.487Z,100621.50
2018-06-03T08:13:20.434Z,100624.68
2018-06-03T08:15:49.352Z,100623.95
2018-06-03T08:18:18.335Z,100621.18
2018-06-03T08:20:47.223Z,100618.38
2018-06-03T08:23:16.183Z,100624.89
2018-06-03T08:25:45.127Z,100625.34
2018-06-03T08:28:14.122Z,100622.91
2018-06-03T08:30:43.041Z,100624.58
2018-06-03T08:33:11.975Z,100619.83
2018-06-03T08:35:40.974Z,100623.31
2018-06-03T08:38:09.906Z,100620.05
2018-06-03T08:40:38.950Z,100619.11
2018-06-03T08:43:07.890Z,100619.27
2018-06-03T08:45:36.847Z,100626.32
2018-06-03T08:48:05.771Z,100624.03
2018-06-03T08:50:34.715Z,100618.38
2018-06-03T08:53:03.652Z,100615.07
2018-06-03T08:55:32.619Z,100617.24
2018-06-03T08:58:01.600Z,100617.30
2018-06-03T09:00:30.587Z,100622.98
2018-06-03T09:02:59.499Z,100618.75
2018-06-03T09:05:28.793Z,100613.44
2018-06-03T09:07:57.699Z,100617.38
2018-06-03T09:10:26.626Z,100613.60
2018-06-03T09:12:55.515Z,100609.81
2018-06-03T09:15:24.458Z,100608.73
2018-06-03T09:17:53.355Z,100604.92
2018-06-03T09:20:22.299Z,100604.88
2018-06-03T09:22:51.198Z,100599.41
2018-06-03T09:25:20.156Z,100602.79
2018-06-03T09:27:49.068Z,100596.93
2018-06-03T09:30:18.038Z,100589.47
2018-06-03T09:32:46.949Z,100587.00
2018-06-03T09:35:15.912Z,100584.50
2018-06-03T09:37:45.147Z,100580.72
2018-06-03T09:40:14.123Z,100577.61
2018-06-03T09:42:43.047Z,100583.04
2018-06-03T09:45:11.988Z,100576.99
2018-06-03T09:47:40.903Z,100571.95
2018-06-03T09:50:09.962Z,100574.16
2018-06-03T09:52:38.910Z,100574.12
2018-06-03T09:55:07.877Z,100569.70
2018-06-03T09:57:36.938Z,100573.67
2018-06-03T10:00:06.014Z,100561.69
2018-06-03T10:02:34.940Z,100565.05
2018-06-03T10:05:03.946Z,100555.17
2018-06-03T10:07:32.949Z,100559.18
2018-06-03T10:10:01.887Z,100544.31
2018-06-03T10:12:30.791Z,100546.91
2018-06-03T10:14:59.771Z,100549.36
2018-06-03T10:17:28.859Z,100544.51
2018-06-03T10:19:57.895Z,100547.42
2018-06-03T10:22:26.798Z,100538.92
2018-06-03T10:24:55.790Z,100538.73
2018-06-03T10:27:25.251Z,100546.79
2018-06-03T10:29:54.458Z,100540.16
2018-06-03T10:32:23.796Z,100545.91
2018-06-03T10:34:52.821Z,100537.25
2018-06-03T10:37:22.509Z,100535.24
2018-06-03T10:39:52.272Z,100536.44
2018-06-03T10:42:21.993Z,100537.95
2018-06-03T10:44:51.772Z,100537.94
2018-06-03T10:47:21.505Z,100536.42
2018-06-03T10:49:51.331Z,100537.53
2018-06-03T10:52:21.056Z,100533.85
2018-06-03T10:54:50.893Z,100529.98
2018-06-03T10:57:21.227Z,100533.98
2018-06-03T10:59:51.036Z,100528.06
2018-06-03T11:02:20.763Z,100527.89
2018-06-03T11:04:50.668Z,100515.08
2018-06-03T11:07:20.251Z,100518.25
2018-06-03T11:09:50.469Z,100517.66
2018-06-03T11:12:20.112Z,100513.30
2018-06-03T11:14:49.797Z,100512.81
2018-06-03T11:17:19.789Z,100516.25
2018-06-03T11:19:49.525Z,100514.94
2018-06-03T11:22:19.264Z,100505.89
2018-06-03T11:24:48.965Z,100511.81
2018-06-03T11:27:18.699Z,100499.95
2018-06-03T11:29:48.470Z,100506.41
2018-06-03T11:32:18.224Z,100498.59
2018-06-03T11:34:47.965Z,100504.95
2018-06-03T11:37:17.643Z,100504.84
2018-06-03T11:39:47.401Z,100501.97
2018-06-03T11:42:17.108Z,100500.37
2018-06-03T11:44:46.206Z,100503.11
2018-06-03T11:47:15.169Z,100498.24
2018-06-03T11:49:44.155Z,100493.39
2018-06-03T11:52:13.073Z,100496.34
2018-06-03T11:54:42.047Z,100489.41
2018-06-03T11:57:11.033Z,100491.45
2018-06-03T11:59:42.977Z,100499.28
2018-06-03T12:02:13.146Z,100491.32
2018-06-03T12:04:42.126Z,100481.58
2018-06-03T12:07:11.102Z,100480.13
2018-06-03T12:09:40.059Z,100475.61
2018-06-03T12:12:09.228Z,100478.72
2018-06-03T12:14:38.238Z,100483.97
2018-06-03T12:17:07.234Z,100477.48
2018-06-03T12:19:36.190Z,100469.45
2018-06-03T12:22:05.186Z,100462.08
2018-06-03T12:24:34.139Z,100457.29
2018-06-03T12:27:03.106Z,100459.41
2018-06-03T12:29:32.044Z,100458.70
2018-06-03T12:32:01.041Z,100458.81
2018-06-03T12:34:29.984Z,100454.25
2018-06-03T12:36:58.966Z,100457.11
2018-06-03T12:39:27.991Z,100458.47
2018-06-03T12:41:56.997Z,100459.28
2018-06-03T12:44:25.948Z,100458.08
2018-06-03T12:46:54.955Z,100450.73
2018-06-03T12:49:23.875Z,100451.57
2018-06-03T12:51:52.866Z,100444.14
2018-06-03T12:54:21.901Z,100435.36
2018-06-03T12:56:50.887Z,100434.79
2018-06-03T12:59:19.826Z,100432.29
2018-06-03T13:01:48.810Z,100427.72
2018-06-03T13:04:17.771Z,100428.53
2018-06-03T13:06:46.777Z,100426.45
2018-06-03T13:09:15.737Z,100424.80
2018-06-03T13:11:44.740Z,100419.80
2018-06-03T13:14:13.734Z,100415.59
2018-06-03T13:16:42.763Z,100417.00
2018-06-03T13:19:11.702Z,100423.06
2018-06-03T13:21:40.937Z,100412.19
2018-06-03T13:24:09.877Z,100413.28
2018-06-03T13:26:38.876Z,100410.73
2018-06-03T13:29:07.868Z,100401.80
2018-06-03T13:31:36.858Z,100393.42
2018-06-03T13:34:06.026Z,100394.19
2018-06-03T13:36:35.006Z,100392.73
2018-06-03T13:39:04.206Z,100387.58
2018-06-03T13:41:33.194Z,100388.61
2018-06-03T13:44:02.148Z,100382.75
2018-06-03T13:46:31.135Z,100378.90
2018-06-03T13:49:00.079Z,100375.32
2018-06-03T13:51:29.085Z,100370.19
2018-06-03T13:53:58.056Z,100361.60
2018-06-03T13:56:27.039Z,100363.84
2018-06-03T13:58:56.005Z,100354.19
2018-06-03T14:01:25.024Z,100361.31
2018-06-03T14:03:53.975Z,100362.77
2018-06-03T14:06:22.986Z,100359.73
2018-06-03T14:08:51.953Z,100354.75
2018-06-03T14:11:20.938Z,100352.68
2018-06-03T14:13:49.877Z,100348.84
2018-06-03T14:16:18.837Z,100340.03
2018-06-03T14:18:47.798Z,100335.48
2018-06-03T14:21:16.802Z,100337.23
2018-06-03T14:23:45.754Z,100332.66
2018-06-03T14:26:14.775Z,100331.31
2018-06-03T14:28:43.704Z,100329.34
2018-06-03T14:31:12.654Z,100330.15
2018-06-03T14:33:41.578Z,100322.00
2018-06-03T14:36:10.521Z,100321.11
2018-06-03T14:38:39.589Z,100314.24
2018-06-03T14:41:08.551Z,100306.80
2018-06-03T14:43:37.595Z,100305.11
2018-06-03T14:46:06.541Z,100294.66
2018-06-03T14:48:35.659Z,100296.84
2018-06-03T14:51:04.674Z,100299.64
2018-06-03T14:53:33.566Z,100301.03
2018-06-03T14:56:02.531Z,100289.53
2018-06-03T14:58:31.385Z,100288.05
2018-06-03T15:01:00.382Z,100282.60
2018-06-03T15:03:29.354Z,100282.33
2018-06-03T15:05:58.255Z,100275.45
2018-06-03T15:08:27.208Z,100279.75
2018-06-03T15:10:56.140Z,100276.45
2018-06-03T15:13:25.108Z,100264.88
2018-06-03T15:15:54.019Z,100267.27
2018-06-03T15:18:22.991Z,100260.80
2018-06-03T15:20:51.928Z,100250.61
2018-06-03T15:23:20.912Z,100257.94
2018-06-03T15:25:49.848Z,100259.83
2018-06-03T15:28:18.836Z,100263.31
2018-06-03T15:30:47.759Z,100249.30
2018-06-03T15:33:16.736Z,100255.15
2018-06-03T15:35:45.669Z,100247.53
2018-06-03T15:38:14.656Z,100247.75
2018-06-03T15:40:43.576Z,100246.37
2018-06-03T15:43:12.571Z,100245.89
2018-06-03T15:45:41.476Z,100238.99
2018-06-03T15:48:10.459Z,100245.07
2018-06-03T15:50:39.376Z,100239.80
2018-06-03T15:53:08.367Z,100238.16
2018-06-03T15:55:37.311Z,100242.03
2018-06-03T15:58:06.268Z,100237.81
2018-06-03T16:00:35.212Z,100233.20
2018-06-03T16:03:04.382Z,100241.19
2018-06-03T16:05:33.330Z,100238.39
2018-06-03T16:08:02.338Z,100239.98
2018-06-03T16:10:31.234Z,100223.22
2018-06-03T16:13:00.310Z,100220.44
2018-06-03T16:15:29.359Z,100225.88
2018-06-03T16:17:58.335Z,100218.54
2018-06-03T16:20:27.266Z,100212.70
2018-06-03T16:22:56.259Z,100221.05
2018-06-03T16:25:25.195Z,100217.91
2018-06-03T16:27:54.170Z,100217.91
2018-06-03T16:30:23.174Z,100210.55
2018-06-03T16:32:52.126Z,100216.14
2018-06-03T16:35:21.086Z,100209.52
2018-06-03T16:37:50.087Z,100216.14
2018-06-03T16:40:19.102Z,100217.30
2018-06-03T16:42:48.102Z,100215.94
2018-06-03T16:45:17.101Z,100212.12
2018-06-03T16:47:46.117Z,100213.37
2018-06-03T16:50:15.109Z,100208.70
2018-06-03T16:52:44.126Z,100204.09
2018-06-03T16:55:13.094Z,100209.32
2018-06-03T16:57:42.082Z,100198.91
2018-06-03T17:00:11.047Z,100198.58
2018-06-03T17:02:40.068Z,100195.07
2018-06-03T17:05:09.028Z,100198.29
2018-06-03T17:07:38.053Z,100198.18
2018-06-03T17:10:07.015Z,100197.38
2018-06-03T17:12:36.088Z,100195.67
2018-06-03T17:15:05.065Z,100189.44
2018-06-03T17:17:34.067Z,100191.26
2018-06-03T17:20:03.004Z,100188.14
2018-06-03T17:22:31.983Z,100179.13
2018-06-03T17:25:00.961Z,100177.77
2018-06-03T17:27:29.947Z,100176.80
2018-06-03T17:29:58.911Z,100172.00
2018-06-03T17:32:27.890Z,100165.09
2018-06-03T17:34:56.828Z,100169.53
2018-06-03T17:37:25.781Z,100170.91
2018-06-03T17:39:54.723Z,100166.00
2018-06-03T17:42:23.679Z,100162.66
2018-06-03T17:44:52.597Z,100165.38
2018-06-03T17:47:21.549Z,100164.88
2018-06-03T17:49:50.476Z,100160.41
2018-06-03T17:52:19.426Z,100161.25
2018-06-03T17:54:48.367Z,100157.81
2018-06-03T17:57:17.336Z,100156.16
2018-06-03T17:59:46.263Z,100160.66
2018-06-03T18:02:15.215Z,100154.94
2018-06-03T18:04:44.164Z,100155.72
2018-06-03T18:07:13.086Z,100151.73
2018-06-03T18:09:42.007Z,100162.92
2018-06-03T18:12:10.932Z,100158.41
2018-06-03T18:14:39.905Z,100155.48
2018-06-03T18:17:08.837Z,100166.00
2018-06-03T18:19:37.838Z,100160.64
2018-06-03T18:22:06.766Z,100162.81
2018-06-03T18:24:35.719Z,100150.56
2018-06-03T18:27:04.650Z,100159.98
2018-06-03T18:29:33.675Z,100162.97
2018-06-03T18:32:02.619Z,100170.13
2018-06-03T18:34:31.618Z,100165.83
2018-06-03T18:37:00.636Z,100163.20
2018-06-03T18:39:29.623Z,100169.51
2018-06-03T18:41:58.584Z,100167.73
2018-06-03T18:44:27.587Z,100159.95
2018-06-03T18:46:56.538Z,100154.00
2018-06-03T18:49:25.655Z,100154.72
2018-06-03T18:51:54.783Z,100144.11
2018-06-03T18:54:23.747Z,100141.84
2018-06-03T18:56:52.754Z,100150.55
2018-06-03T18:59:21.822Z,100154.63
2018-06-03T19:01:50.743Z,100148.87
2018-06-03T19:04:20.176Z,100144.41
2018-06-03T19:06:49.614Z,100144.88
2018-06-03T19:09:18.630Z,100136.88
2018-06-03T19:11:47.573Z,100134.53
2018-06-03T19:14:16.551Z,100133.23
2018-06-03T19:16:45.543Z,100131.59
2018-06-03T19:19:14.527Z,100136.08
2018-06-03T19:21:43.458Z,100136.43
2018-06-03T19:24:12.465Z,100130.27
2018-06-03T19:26:41.434Z,100136.64
2018-06-03T19:29:10.411Z,100128.13
2018-06-03T19:31:39.329Z,100136.50
2018-06-03T19:34:08.274Z,100141.90
2018-06-03T19:36:37.171Z,100140.77
2018-06-03T19:39:08.439Z,100139.23
2018-06-03T19:41:37.854Z,100140.59
2018-06-03T19:44:06.943Z,100146.45
2018-06-03T19:46:35.835Z,100142.03
2018-06-03T19:49:04.824Z,100145.38
2018-06-03T19:51:33.773Z,100151.23
2018-06-03T19:54:02.793Z,100147.05
2018-06-03T19:56:31.712Z,100143.66
2018-06-03T19:59:00.716Z,100152.35
2018-06-03T20:01:29.723Z,100152.73
2018-06-03T20:03:58.680Z,100155.97
2018-06-03T20:06:27.592Z,100155.08
2018-06-03T20:08:56.550Z,100140.81
2018-06-03T20:11:25.438Z,100143.33
2018-06-03T20:13:54.392Z,100147.40
2018-06-03T20:16:23.314Z,100145.87
2018-06-03T20:18:52.253Z,100136.34
2018-06-03T20:21:21.191Z,100139.53
2018-06-03T20:23:50.133Z,100129.66
2018-06-03T20:26:19.053Z,100132.61
2018-06-03T20:28:48.085Z,100134.30
2018-06-03T20:31:17.033Z,100137.69
2018-06-03T20:33:46.002Z,100133.70
2018-06-03T20:36:14.943Z,100126.03
2018-06-03T20:38:43.944Z,100136.39
2018-06-03T20:41:12.887Z,100136.83
2018-06-03T20:43:41.887Z,100142.09
2018-06-03T20:46:10.833Z,100137.95
2018-06-03T20:48:39.912Z,100136.05
2018-06-03T20:51:08.846Z,100139.55
2018-06-03T20:53:37.861Z,100138.06
2018-06-03T20:56:06.808Z,100133.53
2018-06-03T20:58:35.817Z,100129.10
2018-06-03T21:01:04.867Z,100121.23
2018-06-03T21:03:33.804Z,100133.39
2018-06-03T21:06:02.790Z,100132.78
2018-06-03T21:08:31.800Z,100138.68
2018-06-03T21:11:00.996Z,100142.84
2018-06-03T21:13:30.007Z,100142.37
2018-06-03T21:15:59.010Z,100143.63
2018-06-03T21:18:28.019Z,100145.47
2018-06-03T21:20:57.004Z,100147.72
2018-06-03T21:23:25.957Z,100149.84
2018-06-03T21:25:54.937Z,100157.80
2018-06-03T21:28:23.880Z,100162.94
2018-06-03T21:30:52.874Z,100167.09
2018-06-03T21:33:21.803Z,100162.47
2018-06-03T21:35:50.798Z,100159.08
2018-06-03T21:38:19.754Z,100164.03
2018-06-03T21:40:48.716Z,100171.51
2018-06-03T21:43:17.667Z,100171.97
2018-06-03T21:45:46.755Z,100175.36
2018-06-03T21:48:15.691Z,100173.81
2018-06-03T21:50:44.682Z,100173.02
2018-06-03T21:53:13.823Z,100168.87
2018-06-03T21:55:42.810Z,100173.93
2018-06-03T21:58:11.757Z,100167.01
2018-06-03T22:00:40.760Z,100157.67
2018-06-03T22:03:09.694Z,100158.04
2018-06-03T22:05:38.678Z,100160.12
2018-06-03T22:08:07.614Z,100163.84
2018-06-03T22:10:36.581Z,100160.50
2018-06-03T22:13:05.534Z,100150.13
2018-06-03T22:15:34.519Z,100161.03
2018-06-03T22:18:03.489Z,100156.36
2018-06-03T22:20:32.574Z,100151.92
2018-06-03T22:23:01.559Z,100164.16
2018-06-03T22:25:30.553Z,100168.42
2018-06-03T22:27:59.522Z,100171.55
2018-06-03T22:30:28.481Z,100162.39
2018-06-03T22:32:57.397Z,100164.08
2018-06-03T22:35:26.534Z,100152.36
2018-06-03T22:37:55.414Z,100162.65
2018-06-03T22:40:24.367Z,100156.26
2018-06-03T22:42:53.339Z,100156.56
2018-06-03T22:45:22.291Z,100155.48
2018-06-03T22:47:51.177Z,100149.91
2018-06-03T22:50:20.138Z,100145.09
2018-06-03T22:52:49.035Z,100143.52
2018-06-03T22:55:18.003Z,100142.66
2018-06-03T22:57:49.166Z,100138.53
2018-06-03T23:00:34.580Z,100144.22
2018-06-03T23:03:08.759Z,100143.03
2018-06-03T23:05:37.704Z,100149.82
2018-06-03T23:08:06.591Z,100132.90
2018-06-03T23:10:35.551Z,100145.00
2018-06-03T23:13:04.455Z,100147.98
2018-06-03T23:15:33.406Z,100142.48
2018-06-03T23:18:02.294Z,100140.09
2018-06-03T23:20:31.252Z,100129.56
2018-06-03T23:23:00.164Z,100130.39
2018-06-03T23:25:29.176Z,100125.41
2018-06-03T23:27:58.140Z,100124.53
2018-06-03T23:30:27.143Z,100123.35
2018-06-03T23:32:56.085Z,100130.57
2018-06-03T23:35:25.055Z,100126.69
2018-06-03T23:37:54.018Z,100125.94
2018-06-03T23:40:22.985Z,100117.97
2018-06-03T23:42:51.913Z,100119.63
2018-06-03T23:45:20.909Z,100118.80
2018-06-03T23:47:49.862Z,100113.38
2018-06-03T23:50:18.842Z,100111.80
2018-06-03T23:52:47.803Z,100102.87
2018-06-03T23:55:16.796Z,100106.25
2018-06-03T23:57:45.779Z,100107.02
